createdAt,value
2018-08-06T00:01:56.358Z,20.80
2018-08-06T00:04:23.577Z,20.80
2018-08-06T00:06:50.772Z,20.80
2018-08-06T00:09:18.013Z,20.80
2018-08-06T00:11:45.237Z,20.80
2018-08-06T00:14:12.619Z,20.70
2018-08-06T00:16:39.820Z,20.70
2018-08-06T00:19:07.029Z,20.60
2018-08-06T00:21:34.234Z,20.70
2018-08-06T00:24:01.466Z,20.60
2018-08-06T00:26:28.655Z,20.70
2018-08-06T00:28:55.859Z,20.70
2018-08-06T00:31:23.057Z,20.60
2018-08-06T00:33:50.260Z,20.60
2018-08-06T00:36:17.450Z,20.60
2018-08-06T00:38:44.648Z,20.60
2018-08-06T00:43:39.064Z,20.60
2018-08-06T00:46:06.283Z,20.50
2018-08-06T00:48:33.484Z,20.50
2018-08-06T00:51:00.736Z,20.50
2018-08-06T00:53:27.943Z,20.40
2018-08-06T00:55:55.157Z,20.40
2018-08-06T00:58:22.355Z,20.50
2018-08-06T01:00:49.546Z,20.40
2018-08-06T01:03:16.743Z,20.40
2018-08-06T01:05:43.968Z,20.40
2018-08-06T01:08:11.139Z,20.40
2018-08-06T01:10:38.340Z,20.30
2018-08-06T01:13:05.564Z,20.30
2018-08-06T01:15:32.789Z,20.30
2018-08-06T01:18:00.000Z,20.30
2018-08-06T01:20:27.224Z,20.30
2018-08-06T01:22:54.460Z,20.30
2018-08-06T01:25:21.684Z,20.30
2018-08-06T01:27:48.884Z,20.10
2018-08-06T01:30:16.113Z,20.10
2018-08-06T01:32:43.373Z,20.10
2018-08-06T01:35:10.923Z,20.10
2018-08-06T01:37:38.160Z,20.00
2018-08-06T01:40:07.318Z,19.90
2018-08-06T01:42:34.528Z,19.90
2018-08-06T01:45:01.758Z,19.90
2018-08-06T01:47:28.971Z,19.90
2018-08-06T01:49:56.187Z,19.90
2018-08-06T01:52:23.487Z,20.00
2018-08-06T01:54:50.983Z,19.90
2018-08-06T01:57:18.243Z,19.90
2018-08-06T02:02:12.951Z,19.90
2018-08-06T02:04:40.184Z,19.90
2018-08-06T02:07:07.533Z,19.80
2018-08-06T02:09:34.796Z,19.80
2018-08-06T02:12:02.097Z,19.80
2018-08-06T02:14:29.352Z,19.80
2018-08-06T02:16:56.595Z,19.70
2018-08-06T02:19:24.145Z,19.70
2018-08-06T02:26:46.037Z,19.50
2018-08-06T02:29:13.426Z,19.40
2018-08-06T02:31:40.791Z,19.40
2018-08-06T02:34:08.084Z,19.30
2018-08-06T02:36:35.612Z,19.30
2018-08-06T02:39:04.536Z,19.30
2018-08-06T02:41:31.790Z,19.30
2018-08-06T02:43:59.044Z,19.30
2018-08-06T02:48:53.544Z,19.20
2018-08-06T02:51:20.800Z,19.10
2018-08-06T02:53:48.085Z,19.10
2018-08-06T02:56:15.382Z,19.20
2018-08-06T02:58:42.620Z,19.20
2018-08-06T03:01:09.904Z,19.20
2018-08-06T03:03:37.182Z,19.20
2018-08-06T03:06:05.052Z,19.20
2018-08-06T03:08:32.344Z,19.10
2018-08-06T03:10:59.623Z,19.20
2018-08-06T03:13:26.954Z,19.10
2018-08-06T03:15:54.226Z,19.10
2018-08-06T03:18:21.472Z,19.10
2018-08-06T03:20:48.723Z,19.10
2018-08-06T03:23:15.976Z,19.10
2018-08-06T03:25:43.207Z,19.10
2018-08-06T03:28:10.462Z,19.00
2018-08-06T03:30:37.684Z,19.00
2018-08-06T03:33:05.140Z,19.00
2018-08-06T03:35:32.384Z,19.00
2018-08-06T03:37:59.628Z,19.00
2018-08-06T03:40:26.839Z,19.00
2018-08-06T03:42:54.057Z,18.90
2018-08-06T03:45:21.448Z,18.90
2018-08-06T03:47:48.702Z,18.90
2018-08-06T03:50:15.921Z,18.80
2018-08-06T03:52:43.459Z,18.80
2018-08-06T03:55:11.389Z,18.80
2018-08-06T03:57:39.228Z,18.80
2018-08-06T04:00:08.603Z,18.80
2018-08-06T04:02:35.854Z,18.70
2018-08-06T04:05:04.339Z,18.70
2018-08-06T04:07:31.651Z,18.70
2018-08-06T04:09:58.898Z,18.70
2018-08-06T04:12:26.141Z,18.70
2018-08-06T04:14:53.382Z,18.80
2018-08-06T04:17:20.621Z,18.80
2018-08-06T04:19:47.881Z,18.80
2018-08-06T04:22:15.139Z,18.80
2018-08-06T04:24:42.367Z,18.80
2018-08-06T04:27:09.621Z,18.80
2018-08-06T04:29:36.839Z,18.90
2018-08-06T04:32:04.114Z,18.90
2018-08-06T04:34:31.445Z,18.90
2018-08-06T04:36:58.667Z,18.90
2018-08-06T04:39:25.880Z,18.90
2018-08-06T04:41:53.089Z,18.90
2018-08-06T04:44:20.303Z,18.90
2018-08-06T04:46:47.508Z,19.00
2018-08-06T04:49:14.724Z,19.10
2018-08-06T04:51:41.940Z,19.10
2018-08-06T04:54:09.244Z,19.20
2018-08-06T04:56:36.480Z,19.20
2018-08-06T04:59:03.714Z,19.20
2018-08-06T05:01:30.920Z,19.30
2018-08-06T05:03:58.155Z,19.30
2018-08-06T05:06:25.396Z,19.30
2018-08-06T05:08:52.621Z,19.40
2018-08-06T05:11:19.822Z,19.40
2018-08-06T05:13:47.076Z,19.50
2018-08-06T05:16:14.276Z,19.50
2018-08-06T05:18:41.601Z,19.60
2018-08-06T05:21:08.800Z,19.70
2018-08-06T05:23:44.843Z,19.70
2018-08-06T05:26:12.073Z,19.80
2018-08-06T05:28:39.316Z,19.90
2018-08-06T05:31:06.596Z,19.90
2018-08-06T05:33:33.818Z,20.00
2018-08-06T05:36:01.060Z,20.10
2018-08-06T05:38:28.267Z,20.20
2018-08-06T05:40:55.499Z,20.30
2018-08-06T05:43:22.819Z,20.40
2018-08-06T05:45:50.040Z,20.50
2018-08-06T05:48:17.271Z,20.50
2018-08-06T05:50:44.485Z,20.60
2018-08-06T05:53:11.922Z,20.70
2018-08-06T05:55:39.108Z,20.70
2018-08-06T05:58:06.351Z,20.80
2018-08-06T06:00:33.636Z,20.80
2018-08-06T06:03:00.865Z,20.90
2018-08-06T06:05:28.115Z,21.00
2018-08-06T06:07:55.344Z,21.10
2018-08-06T06:10:22.584Z,21.10
2018-08-06T06:12:49.816Z,21.20
2018-08-06T06:15:17.059Z,21.30
2018-08-06T06:17:44.360Z,21.40
2018-08-06T06:20:11.601Z,21.50
2018-08-06T06:22:38.901Z,21.60
2018-08-06T06:25:08.255Z,21.80
2018-08-06T06:27:35.822Z,21.80
2018-08-06T06:30:04.071Z,21.90
2018-08-06T06:32:31.311Z,22.00
2018-08-06T06:34:58.632Z,22.10
2018-08-06T06:37:25.949Z,22.10
2018-08-06T06:39:54.242Z,22.20
2018-08-06T06:42:23.326Z,22.30
2018-08-06T06:44:51.465Z,22.40
2018-08-06T06:47:20.162Z,22.60
2018-08-06T06:49:48.727Z,22.80
2018-08-06T06:52:16.078Z,23.10
2018-08-06T06:54:43.369Z,23.30
2018-08-06T06:57:10.702Z,23.50
2018-08-06T06:59:37.937Z,23.60
2018-08-06T07:02:05.496Z,23.80
2018-08-06T07:04:32.768Z,24.10
2018-08-06T07:07:00.126Z,24.90
2018-08-06T07:09:27.371Z,26.00
2018-08-06T07:11:54.611Z,27.20
2018-08-06T07:14:21.879Z,28.20
2018-08-06T07:16:49.135Z,29.20
2018-08-06T07:19:17.112Z,30.00
2018-08-06T07:21:44.408Z,30.30
2018-08-06T07:24:11.711Z,30.90
2018-08-06T07:26:38.999Z,31.40
2018-08-06T07:29:06.259Z,31.50
2018-08-06T07:31:33.743Z,31.10
2018-08-06T07:34:01.007Z,31.20
2018-08-06T07:36:28.265Z,31.80
2018-08-06T07:38:55.511Z,32.30
2018-08-06T07:41:22.785Z,32.50
2018-08-06T07:43:50.039Z,32.80
2018-08-06T07:46:17.320Z,33.00
2018-08-06T07:48:44.600Z,33.00
2018-08-06T07:51:11.905Z,33.10
2018-08-06T07:53:39.153Z,33.70
2018-08-06T07:56:06.641Z,33.80
2018-08-06T07:58:33.915Z,33.50
2018-08-06T08:01:01.149Z,33.20
2018-08-06T08:03:28.472Z,33.10
2018-08-06T08:05:55.744Z,33.10
2018-08-06T08:08:23.041Z,33.50
2018-08-06T08:10:50.288Z,34.00
2018-08-06T08:13:17.587Z,34.70
2018-08-06T08:15:44.865Z,35.00
2018-08-06T08:20:39.336Z,35.40
2018-08-06T08:23:06.636Z,35.50
2018-08-06T08:25:33.927Z,35.90
2018-08-06T08:28:01.172Z,36.10
2018-08-06T08:30:28.432Z,35.70
2018-08-06T08:32:55.678Z,36.00
2018-08-06T08:35:28.096Z,35.80
2018-08-06T08:37:55.380Z,35.50
2018-08-06T08:40:22.623Z,35.30
2018-08-06T08:42:49.878Z,35.60
2018-08-06T08:45:17.834Z,35.60
2018-08-06T08:47:45.515Z,35.60
2018-08-06T08:50:15.025Z,35.80
2018-08-06T08:52:42.556Z,35.90
2018-08-06T08:55:11.038Z,35.80
2018-08-06T08:57:38.399Z,35.90
2018-08-06T09:05:02.155Z,36.10
2018-08-06T09:07:29.572Z,36.00
2018-08-06T09:09:56.846Z,36.30
2018-08-06T09:12:24.082Z,36.50
2018-08-06T09:14:51.332Z,36.40
2018-08-06T09:17:18.745Z,36.20
2018-08-06T09:19:46.135Z,36.50
2018-08-06T09:22:13.401Z,36.60
2018-08-06T09:24:40.623Z,36.50
2018-08-06T09:27:07.841Z,36.50
2018-08-06T09:32:02.292Z,37.40
2018-08-06T09:34:29.522Z,38.10
2018-08-06T09:36:56.740Z,38.10
2018-08-06T09:39:24.528Z,38.10
2018-08-06T09:41:51.751Z,37.80
2018-08-06T09:44:19.131Z,37.40
2018-08-06T09:46:46.386Z,37.40
2018-08-06T09:49:13.625Z,37.20
2018-08-06T09:51:40.887Z,36.30
2018-08-06T09:54:08.136Z,36.10
2018-08-06T09:56:35.363Z,36.20
2018-08-06T09:59:02.603Z,36.70
2018-08-06T10:01:35.722Z,37.20
2018-08-06T10:04:02.997Z,37.60
2018-08-06T10:06:30.470Z,37.00
2018-08-06T10:08:57.471Z,36.70
2018-08-06T10:11:24.692Z,36.70
2018-08-06T10:13:51.915Z,36.80
2018-08-06T10:16:19.274Z,37.10
2018-08-06T10:18:46.514Z,37.30
2018-08-06T10:21:13.728Z,37.20
2018-08-06T10:23:40.969Z,37.30
2018-08-06T10:26:08.193Z,37.30
2018-08-06T10:28:35.428Z,37.70
2018-08-06T10:31:02.675Z,38.10
2018-08-06T10:33:29.922Z,38.80
2018-08-06T10:35:57.219Z,38.30
2018-08-06T10:38:24.476Z,38.20
2018-08-06T10:40:51.731Z,38.20
2018-08-06T10:43:19.011Z,37.60
2018-08-06T10:45:46.241Z,38.00
2018-08-06T10:48:13.524Z,37.80
2018-08-06T10:50:40.792Z,37.20
2018-08-06T10:53:08.072Z,36.90
2018-08-06T10:55:35.353Z,37.20
2018-08-06T10:58:02.726Z,37.60
2018-08-06T11:00:30.768Z,37.80
2018-08-06T11:02:58.001Z,37.80
2018-08-06T11:05:25.252Z,37.80
2018-08-06T11:07:52.525Z,37.70
2018-08-06T11:10:21.034Z,37.90
2018-08-06T11:15:22.127Z,37.20
2018-08-06T11:17:49.454Z,37.40
2018-08-06T11:20:17.404Z,37.80
2018-08-06T11:22:44.708Z,38.20
2018-08-06T11:25:15.625Z,38.20
2018-08-06T11:27:42.863Z,38.80
2018-08-06T11:30:15.586Z,39.50
2018-08-06T11:32:43.094Z,39.40
2018-08-06T11:35:11.000Z,39.00
2018-08-06T11:37:38.448Z,39.30
2018-08-06T11:40:06.928Z,38.60
2018-08-06T11:42:34.141Z,38.60
2018-08-06T11:45:01.364Z,38.80
2018-08-06T11:49:55.820Z,38.40
2018-08-06T11:52:23.057Z,38.40
2018-08-06T11:54:50.300Z,38.30
2018-08-06T11:57:17.545Z,38.40
2018-08-06T11:59:44.759Z,38.60
2018-08-06T12:02:12.064Z,38.70
2018-08-06T12:04:39.290Z,38.60
2018-08-06T12:07:06.538Z,38.40
2018-08-06T12:09:33.743Z,38.10
2018-08-06T12:12:00.973Z,38.40
2018-08-06T12:14:28.193Z,38.40
2018-08-06T12:16:55.421Z,38.80
2018-08-06T12:19:22.631Z,38.60
2018-08-06T12:21:49.859Z,37.80
2018-08-06T12:24:17.100Z,38.00
2018-08-06T12:26:44.347Z,38.70
2018-08-06T12:31:39.023Z,39.40
2018-08-06T12:34:06.279Z,39.40
2018-08-06T12:36:33.515Z,39.70
2018-08-06T12:39:07.907Z,39.40
2018-08-06T12:41:35.517Z,39.60
2018-08-06T12:44:02.801Z,39.50
2018-08-06T12:46:30.079Z,39.40
2018-08-06T12:48:57.336Z,39.60
2018-08-06T12:51:24.611Z,39.80
2018-08-06T12:53:51.920Z,40.10
2018-08-06T12:56:19.156Z,40.50
2018-08-06T12:58:46.373Z,40.70
2018-08-06T13:03:40.852Z,39.60
2018-08-06T13:06:08.164Z,40.20
2018-08-06T13:08:35.448Z,40.00
2018-08-06T13:11:02.734Z,39.90
2018-08-06T13:13:29.983Z,40.10
2018-08-06T13:15:57.263Z,40.10
2018-08-06T13:18:24.516Z,39.70
2018-08-06T13:20:51.784Z,39.90
2018-08-06T13:23:19.022Z,39.80
2018-08-06T13:25:46.272Z,39.60
2018-08-06T13:30:40.706Z,40.40
2018-08-06T13:33:07.926Z,40.60
2018-08-06T13:35:35.156Z,40.80
2018-08-06T13:38:02.393Z,40.50
2018-08-06T13:40:29.614Z,40.40
2018-08-06T13:42:56.844Z,40.50
2018-08-06T13:45:24.075Z,40.20
2018-08-06T13:47:51.322Z,40.20
2018-08-06T13:50:18.556Z,40.20
2018-08-06T13:52:45.801Z,40.30
2018-08-06T13:55:13.227Z,39.80
2018-08-06T13:57:40.708Z,38.40
2018-08-06T14:00:11.397Z,38.60
2018-08-06T14:02:38.645Z,39.30
2018-08-06T14:05:06.899Z,39.80
2018-08-06T14:07:34.124Z,39.80
2018-08-06T14:10:01.331Z,39.90
2018-08-06T14:12:28.556Z,40.50
2018-08-06T14:14:55.765Z,40.60
2018-08-06T14:19:50.215Z,40.60
2018-08-06T14:22:17.450Z,40.90
2018-08-06T14:24:44.670Z,40.80
2018-08-06T14:27:11.906Z,40.60
2018-08-06T14:29:39.144Z,40.00
2018-08-06T14:32:06.423Z,39.50
2018-08-06T14:34:33.683Z,39.60
2018-08-06T14:37:00.926Z,39.80
2018-08-06T14:39:28.199Z,40.00
2018-08-06T14:41:55.503Z,39.70
2018-08-06T14:44:22.772Z,38.70
2018-08-06T14:46:49.995Z,39.20
2018-08-06T14:49:17.219Z,39.40
2018-08-06T14:51:44.494Z,39.10
2018-08-06T14:54:11.777Z,38.40
2018-08-06T14:56:39.196Z,38.50
2018-08-06T14:59:06.524Z,38.20
2018-08-06T15:01:33.802Z,38.30
2018-08-06T15:04:01.140Z,38.30
2018-08-06T15:08:56.534Z,38.10
2018-08-06T15:11:24.108Z,38.20
2018-08-06T15:13:51.658Z,38.40
2018-08-06T15:16:18.923Z,38.30
2018-08-06T15:18:46.184Z,38.50
2018-08-06T15:21:13.517Z,38.40
2018-08-06T15:23:40.806Z,38.20
2018-08-06T15:26:08.313Z,38.20
2018-08-06T15:28:35.816Z,38.10
2018-08-06T15:31:03.153Z,38.10
2018-08-06T15:33:30.444Z,38.00
2018-08-06T15:35:57.692Z,37.90
2018-08-06T15:38:25.013Z,37.80
2018-08-06T15:40:52.395Z,37.90
2018-08-06T15:43:19.842Z,37.90
2018-08-06T15:45:47.087Z,37.70
2018-08-06T15:48:14.347Z,37.60
2018-08-06T15:50:41.580Z,37.70
2018-08-06T15:53:15.817Z,37.60
2018-08-06T15:55:43.077Z,37.80
2018-08-06T15:58:10.496Z,37.40
2018-08-06T16:00:37.833Z,36.90
2018-08-06T16:03:05.177Z,36.50
2018-08-06T16:05:32.399Z,36.80
2018-08-06T16:07:59.759Z,36.60
2018-08-06T16:10:27.124Z,36.70
2018-08-06T16:12:54.403Z,36.90
2018-08-06T16:15:21.967Z,36.80
2018-08-06T16:17:49.538Z,36.90
2018-08-06T16:20:17.722Z,36.80
2018-08-06T16:25:12.832Z,36.60
2018-08-06T16:27:40.135Z,36.40
2018-08-06T16:30:13.482Z,36.30
2018-08-06T16:32:40.789Z,36.50
2018-08-06T16:35:08.131Z,36.40
2018-08-06T16:37:35.449Z,36.50
2018-08-06T16:40:02.752Z,36.50
2018-08-06T16:42:30.041Z,36.30
2018-08-06T16:44:57.352Z,36.30
2018-08-06T16:47:24.660Z,36.30
2018-08-06T16:49:51.891Z,36.10
2018-08-06T16:52:19.150Z,36.10
2018-08-06T16:54:46.384Z,35.70
2018-08-06T16:57:13.672Z,35.20
2018-08-06T16:59:40.952Z,34.90
2018-08-06T17:02:08.188Z,35.00
2018-08-06T17:04:35.438Z,35.00
2018-08-06T17:07:02.644Z,35.00
2018-08-06T17:09:29.877Z,35.00
2018-08-06T17:11:57.130Z,34.90
2018-08-06T17:14:24.464Z,34.80
2018-08-06T17:16:51.679Z,34.60
2018-08-06T17:19:18.888Z,34.60
2018-08-06T17:21:46.148Z,34.70
2018-08-06T17:24:13.384Z,34.50
2018-08-06T17:26:40.639Z,34.30
2018-08-06T17:29:07.906Z,34.10
2018-08-06T17:31:35.198Z,34.10
2018-08-06T17:34:02.473Z,33.90
2018-08-06T17:38:57.028Z,33.20
2018-08-06T17:41:24.284Z,32.80
2018-08-06T17:43:51.636Z,32.10
2018-08-06T17:46:18.912Z,31.60
2018-08-06T17:48:46.147Z,31.10
2018-08-06T17:51:13.419Z,30.70
2018-08-06T17:53:40.682Z,30.50
2018-08-06T17:56:07.915Z,30.40
2018-08-06T17:58:35.166Z,30.20
2018-08-06T18:01:02.434Z,30.00
2018-08-06T18:03:29.684Z,29.90
2018-08-06T18:05:56.948Z,29.70
2018-08-06T18:08:24.182Z,29.60
2018-08-06T18:10:51.439Z,29.40
2018-08-06T18:13:18.685Z,29.30
2018-08-06T18:15:45.927Z,29.20
2018-08-06T18:18:13.164Z,29.00
2018-08-06T18:20:40.420Z,28.90
2018-08-06T18:23:07.656Z,28.80
2018-08-06T18:25:34.936Z,28.80
2018-08-06T18:28:02.168Z,28.80
2018-08-06T18:30:29.394Z,28.70
2018-08-06T18:32:56.632Z,28.60
2018-08-06T18:35:23.861Z,28.60
2018-08-06T18:37:51.096Z,28.50
2018-08-06T18:40:19.552Z,28.50
2018-08-06T18:42:46.801Z,28.40
2018-08-06T18:47:43.488Z,28.30
2018-08-06T18:52:39.653Z,28.10
2018-08-06T19:00:02.540Z,28.10
2018-08-06T19:02:29.768Z,28.10
2018-08-06T19:04:56.976Z,28.10
2018-08-06T19:07:24.309Z,28.20
2018-08-06T19:09:51.547Z,28.10
2018-08-06T19:12:24.376Z,28.10
2018-08-06T19:14:51.586Z,28.00
2018-08-06T19:17:18.823Z,28.00
2018-08-06T19:19:46.084Z,27.90
2018-08-06T19:22:13.256Z,27.90
2018-08-06T19:24:46.097Z,27.80
2018-08-06T19:27:13.303Z,27.80
2018-08-06T19:29:40.534Z,27.70
2018-08-06T19:32:07.756Z,27.70
2018-08-06T19:34:34.991Z,27.70
2018-08-06T19:37:07.967Z,27.60
2018-08-06T19:39:35.259Z,27.50
2018-08-06T19:42:02.516Z,27.50
2018-08-06T19:44:29.736Z,27.40
2018-08-06T19:46:56.938Z,27.40
2018-08-06T19:49:29.879Z,27.40
2018-08-06T19:51:57.213Z,27.30
2018-08-06T19:54:24.460Z,27.30
2018-08-06T19:56:51.691Z,27.30
2018-08-06T19:59:18.975Z,27.30
2018-08-06T20:01:46.164Z,27.30
2018-08-06T20:04:13.416Z,27.30
2018-08-06T20:06:40.672Z,27.20
2018-08-06T20:09:10.356Z,27.20
2018-08-06T20:14:05.250Z,27.10
2018-08-06T20:16:32.494Z,27.10
2018-08-06T20:18:59.799Z,27.10
2018-08-06T20:21:27.031Z,27.00
2018-08-06T20:23:54.246Z,26.70
2018-08-06T20:26:21.472Z,26.50
2018-08-06T20:28:48.699Z,26.40
2018-08-06T20:31:15.925Z,26.20
2018-08-06T20:33:43.162Z,26.20
2018-08-06T20:36:10.476Z,26.10
2018-08-06T20:38:37.685Z,26.00
2018-08-06T20:41:05.096Z,26.00
2018-08-06T20:43:32.329Z,26.00
2018-08-06T20:45:59.546Z,25.90
2018-08-06T20:48:26.771Z,25.90
2018-08-06T20:50:54.017Z,25.90
2018-08-06T20:53:21.257Z,25.90
2018-08-06T20:55:48.488Z,25.90
2018-08-06T20:58:15.728Z,25.90
2018-08-06T21:00:42.947Z,25.90
2018-08-06T21:03:10.193Z,25.80
2018-08-06T21:05:37.447Z,25.70
2018-08-06T21:08:04.787Z,25.70
2018-08-06T21:10:32.035Z,25.60
2018-08-06T21:12:59.263Z,25.40
2018-08-06T21:15:26.678Z,25.30
2018-08-06T21:17:53.900Z,25.10
2018-08-06T21:20:21.132Z,25.00
2018-08-06T21:22:49.112Z,24.80
2018-08-06T21:25:16.480Z,24.70
2018-08-06T21:27:44.865Z,24.70
2018-08-06T21:30:14.791Z,24.60
2018-08-06T21:32:42.998Z,24.60
2018-08-06T21:35:10.243Z,24.70
2018-08-06T21:37:37.492Z,24.70
2018-08-06T21:40:04.990Z,24.80
2018-08-06T21:44:59.575Z,24.70
2018-08-06T21:47:26.727Z,24.70
2018-08-06T21:49:54.010Z,24.70
2018-08-06T21:52:21.247Z,24.70
2018-08-06T21:54:48.515Z,24.70
2018-08-06T21:57:15.788Z,24.70
2018-08-06T21:59:43.055Z,24.80
2018-08-06T22:02:10.391Z,24.80
2018-08-06T22:04:37.651Z,24.80
2018-08-06T22:07:04.997Z,24.90
2018-08-06T22:09:32.256Z,25.00
2018-08-06T22:11:59.503Z,24.90
2018-08-06T22:14:26.738Z,24.90
2018-08-06T22:16:53.981Z,24.90
2018-08-06T22:19:21.303Z,24.90
2018-08-06T22:21:48.600Z,24.90
2018-08-06T22:24:15.856Z,25.00
2018-08-06T22:26:43.093Z,25.00
2018-08-06T22:29:10.389Z,24.90
2018-08-06T22:31:37.648Z,24.80
2018-08-06T22:36:32.130Z,24.60
2018-08-06T22:38:59.383Z,24.50
2018-08-06T22:41:26.636Z,24.50
2018-08-06T22:43:53.939Z,24.40
2018-08-06T22:46:21.553Z,24.30
2018-08-06T22:48:48.811Z,24.30
2018-08-06T22:51:16.101Z,24.40
2018-08-06T22:53:43.367Z,24.50
2018-08-06T22:56:10.895Z,24.60
2018-08-06T22:58:38.363Z,24.60
2018-08-06T23:01:07.004Z,24.60
2018-08-06T23:03:34.325Z,24.60
2018-08-06T23:06:01.637Z,24.50
2018-08-06T23:08:28.955Z,24.50
2018-08-06T23:10:56.206Z,24.50
2018-08-06T23:13:23.467Z,24.50
2018-08-06T23:15:50.755Z,24.40
2018-08-06T23:18:18.017Z,24.40
2018-08-06T23:23:12.539Z,24.30
2018-08-06T23:25:39.824Z,24.10
2018-08-06T23:30:34.370Z,23.90
2018-08-06T23:33:01.623Z,23.80
2018-08-06T23:35:28.901Z,23.70
2018-08-06T23:37:56.172Z,23.60
2018-08-06T23:40:23.422Z,23.60
2018-08-06T23:42:50.695Z,23.60
2018-08-06T23:45:17.953Z,23.50
2018-08-06T23:47:45.217Z,23.50
2018-08-06T23:50:13.685Z,23.40
2018-08-06T23:55:10.979Z,23.20
